sensor_id;sensor_type;location;lat;lon;timestamp;pressure;altitude;pressure_sealevel;temperature
50206;BMP280;36098;48.390;10.856;2023-07-29T00:01:00;95765.53;;;24.99
50206;BMP280;36098;48.390;10.856;2023-07-29T00:03:26;95770.53;;;25.01
50206;BMP280;36098;48.390;10.856;2023-07-29T00:05:51;95767.97;;;24.96
50206;BMP280;36098;48.390;10.856;2023-07-29T00:08:16;95779.81;;;24.98
50206;BMP280;36098;48.390;10.856;2023-07-29T00:10:42;95770.31;;;24.97
50206;BMP280;36098;48.390;10.856;2023-07-29T00:13:07;95768.94;;;25.00
50206;BMP280;36098;48.390;10.856;2023-07-29T00:15:33;95762.09;;;24.99
50206;BMP280;36098;48.390;10.856;2023-07-29T00:17:58;95776.69;;;24.96
50206;BMP280;36098;48.390;10.856;2023-07-29T00:20:24;95765.03;;;24.97
50206;BMP280;36098;48.390;10.856;2023-07-29T00:22:49;95763.97;;;24.98
50206;BMP280;36098;48.390;10.856;2023-07-29T00:25:16;95764.25;;;24.97
50206;BMP280;36098;48.390;10.856;2023-07-29T00:27:42;95755.06;;;24.94
50206;BMP280;36098;48.390;10.856;2023-07-29T00:30:07;95756.63;;;24.95
50206;BMP280;36098;48.390;10.856;2023-07-29T00:32:33;95753.47;;;24.93
50206;BMP280;36098;48.390;10.856;2023-07-29T00:34:58;95749.19;;;24.97
50206;BMP280;36098;48.390;10.856;2023-07-29T00:37:26;95747.13;;;24.94
50206;BMP280;36098;48.390;10.856;2023-07-29T00:39:51;95746.84;;;24.96
50206;BMP280;36098;48.390;10.856;2023-07-29T00:42:16;95748.41;;;24.97
50206;BMP280;36098;48.390;10.856;2023-07-29T00:44:41;95744.50;;;24.94
50206;BMP280;36098;48.390;10.856;2023-07-29T00:47:07;95746.63;;;24.92
50206;BMP280;36098;48.390;10.856;2023-07-29T00:49:32;95740.25;;;24.93
50206;BMP280;36098;48.390;10.856;2023-07-29T00:51:58;95743.47;;;24.90
50206;BMP280;36098;48.390;10.856;2023-07-29T00:54:23;95748.19;;;24.93
50206;BMP280;36098;48.390;10.856;2023-07-29T00:56:48;95741.91;;;24.89
50206;BMP280;36098;48.390;10.856;2023-07-29T00:59:14;95742.41;;;24.91
50206;BMP280;36098;48.390;10.856;2023-07-29T01:01:40;95743.97;;;24.92
50206;BMP280;36098;48.390;10.856;2023-07-29T01:04:05;95742.22;;;24.88
50206;BMP280;36098;48.390;10.856;2023-07-29T01:09:39;95732.34;;;24.93
50206;BMP280;36098;48.390;10.856;2023-07-29T01:12:14;95731.84;;;24.91
50206;BMP280;36098;48.390;10.856;2023-07-29T01:17:33;95743.78;;;24.89
50206;BMP280;36098;48.390;10.856;2023-07-29T01:20:06;95740.94;;;24.85
50206;BMP280;36098;48.390;10.856;2023-07-29T01:22:34;95738.28;;;24.85
50206;BMP280;36098;48.390;10.856;2023-07-29T01:24:59;95726.88;;;24.90
50206;BMP280;36098;48.390;10.856;2023-07-29T01:27:25;95737.50;;;24.85
50206;BMP280;36098;48.390;10.856;2023-07-29T01:29:51;95725.88;;;24.86
50206;BMP280;36098;48.390;10.856;2023-07-29T01:32:20;95724.81;;;24.87
50206;BMP280;36098;48.390;10.856;2023-07-29T01:34:56;95719.22;;;24.88
50206;BMP280;36098;48.390;10.856;2023-07-29T01:37:22;95722.44;;;24.85
50206;BMP280;36098;48.390;10.856;2023-07-29T01:39:50;95724.31;;;24.85
50206;BMP280;36098;48.390;10.856;2023-07-29T01:42:16;95725.09;;;24.85
50206;BMP280;36098;48.390;10.856;2023-07-29T01:44:42;95724.00;;;24.86
50206;BMP280;36098;48.390;10.856;2023-07-29T01:47:08;95727.44;;;24.87
50206;BMP280;36098;48.390;10.856;2023-07-29T01:49:33;95724.09;;;24.81
50206;BMP280;36098;48.390;10.856;2023-07-29T01:51:58;95721.47;;;24.81
50206;BMP280;36098;48.390;10.856;2023-07-29T01:54:23;95712.16;;;24.84
50206;BMP280;36098;48.390;10.856;2023-07-29T01:56:49;95708.25;;;24.81
50206;BMP280;36098;48.390;10.856;2023-07-29T01:59:16;95715.31;;;24.86
50206;BMP280;36098;48.390;10.856;2023-07-29T02:01:41;95715.59;;;24.84
50206;BMP280;36098;48.390;10.856;2023-07-29T02:04:07;95711.66;;;24.82
50206;BMP280;36098;48.390;10.856;2023-07-29T02:06:33;95701.41;;;24.80
50206;BMP280;36098;48.390;10.856;2023-07-29T02:08:58;95698.09;;;24.88
50206;BMP280;36098;48.390;10.856;2023-07-29T02:11:23;95701.81;;;24.87
50206;BMP280;36098;48.390;10.856;2023-07-29T02:13:55;95705.03;;;24.84
50206;BMP280;36098;48.390;10.856;2023-07-29T02:16:21;95701.31;;;24.85
50206;BMP280;36098;48.390;10.856;2023-07-29T02:18:47;95708.16;;;24.86
50206;BMP280;36098;48.390;10.856;2023-07-29T02:21:14;95703.75;;;24.82
50206;BMP280;36098;48.390;10.856;2023-07-29T02:23:39;95701.31;;;24.85
50206;BMP280;36098;48.390;10.856;2023-07-29T02:26:04;95697.09;;;24.84
50206;BMP280;36098;48.390;10.856;2023-07-29T02:28:30;95708.75;;;24.83
50206;BMP280;36098;48.390;10.856;2023-07-29T02:33:39;95703.94;;;24.85
50206;BMP280;36098;48.390;10.856;2023-07-29T02:36:04;95709.31;;;24.80
50206;BMP280;36098;48.390;10.856;2023-07-29T02:38:30;95703.75;;;24.82
50206;BMP280;36098;48.390;10.856;2023-07-29T02:40:55;95712.53;;;24.77
50206;BMP280;36098;48.390;10.856;2023-07-29T02:43:20;95705.13;;;24.79
50206;BMP280;36098;48.390;10.856;2023-07-29T02:45:45;95707.19;;;24.82
50206;BMP280;36098;48.390;10.856;2023-07-29T02:48:11;95693.97;;;24.82
50206;BMP280;36098;48.390;10.856;2023-07-29T02:50:36;95697.09;;;24.84
50206;BMP280;36098;48.390;10.856;2023-07-29T02:53:01;95697.09;;;24.84
50206;BMP280;36098;48.390;10.856;2023-07-29T02:55:27;95691.91;;;24.79
50206;BMP280;36098;48.390;10.856;2023-07-29T02:57:52;95696.13;;;24.80
50206;BMP280;36098;48.390;10.856;2023-07-29T03:00:17;95690.34;;;24.78
50206;BMP280;36098;48.390;10.856;2023-07-29T03:02:43;95685.94;;;24.74
50206;BMP280;36098;48.390;10.856;2023-07-29T03:05:08;95685.66;;;24.75
50206;BMP280;36098;48.390;10.856;2023-07-29T03:07:33;95681.84;;;24.81
50206;BMP280;36098;48.390;10.856;2023-07-29T03:09:59;95677.06;;;24.83
50206;BMP280;36098;48.390;10.856;2023-07-29T03:12:24;95681.25;;;24.84
50206;BMP280;36098;48.390;10.856;2023-07-29T03:14:50;95690.03;;;24.80
50206;BMP280;36098;48.390;10.856;2023-07-29T03:17:15;95688.28;;;24.75
50206;BMP280;36098;48.390;10.856;2023-07-29T03:19:40;95691.97;;;24.74
50206;BMP280;36098;48.390;10.856;2023-07-29T03:22:05;95690.72;;;24.72
50206;BMP280;36098;48.390;10.856;2023-07-29T03:24:31;95689.63;;;24.73
50206;BMP280;36098;48.390;10.856;2023-07-29T03:26:56;95690.41;;;24.73
50206;BMP280;36098;48.390;10.856;2023-07-29T03:29:21;95681.94;;;24.76
50206;BMP280;36098;48.390;10.856;2023-07-29T03:31:46;95687.78;;;24.73
50206;BMP280;36098;48.390;10.856;2023-07-29T03:34:12;95685.66;;;24.75
50206;BMP280;36098;48.390;10.856;2023-07-29T03:36:37;95682.22;;;24.75
50206;BMP280;36098;48.390;10.856;2023-07-29T03:39:03;95683.19;;;24.79
50206;BMP280;36098;48.390;10.856;2023-07-29T03:41:28;95669.28;;;24.73
50206;BMP280;36098;48.390;10.856;2023-07-29T03:43:54;95673.00;;;24.72
50206;BMP280;36098;48.390;10.856;2023-07-29T03:46:19;95675.38;;;24.74
50206;BMP280;36098;48.390;10.856;2023-07-29T03:48:46;95673.59;;;24.69
50206;BMP280;36098;48.390;10.856;2023-07-29T03:51:12;95664.00;;;24.73
50206;BMP280;36098;48.390;10.856;2023-07-29T03:53:37;95665.28;;;24.76
50206;BMP280;36098;48.390;10.856;2023-07-29T03:56:02;95662.94;;;24.74
50206;BMP280;36098;48.390;10.856;2023-07-29T03:58:28;95663.50;;;24.71
50206;BMP280;36098;48.390;10.856;2023-07-29T04:00:53;95669.38;;;24.68
50206;BMP280;36098;48.390;10.856;2023-07-29T04:03:18;95666.47;;;24.70
50206;BMP280;36098;48.390;10.856;2023-07-29T04:05:44;95670.94;;;24.69
50206;BMP280;36098;48.390;10.856;2023-07-29T04:08:09;95660.97;;;24.66
50206;BMP280;36098;48.390;10.856;2023-07-29T04:10:35;95658.31;;;24.66
50206;BMP280;36098;48.390;10.856;2023-07-29T04:13:00;95649.53;;;24.71
50206;BMP280;36098;48.390;10.856;2023-07-29T04:15:25;95648.16;;;24.73
50206;BMP280;36098;48.390;10.856;2023-07-29T04:17:51;95649.31;;;24.67
50206;BMP280;36098;48.390;10.856;2023-07-29T04:20:16;95652.47;;;24.69
50206;BMP280;36098;48.390;10.856;2023-07-29T04:22:41;95647.75;;;24.66
50206;BMP280;36098;48.390;10.856;2023-07-29T04:25:06;95648.84;;;24.65
50206;BMP280;36098;48.390;10.856;2023-07-29T04:27:32;95643.28;;;24.67
50206;BMP280;36098;48.390;10.856;2023-07-29T04:29:57;95644.34;;;24.66
50206;BMP280;36098;48.390;10.856;2023-07-29T04:32:22;95636.13;;;24.67
50206;BMP280;36098;48.390;10.856;2023-07-29T04:34:47;95641.41;;;24.67
50206;BMP280;36098;48.390;10.856;2023-07-29T04:37:13;95644.06;;;24.67
50206;BMP280;36098;48.390;10.856;2023-07-29T04:39:38;95650.13;;;24.68
50206;BMP280;36098;48.390;10.856;2023-07-29T04:42:04;95641.13;;;24.69
50206;BMP280;36098;48.390;10.856;2023-07-29T04:44:29;95646.78;;;24.62
50206;BMP280;36098;48.390;10.856;2023-07-29T04:46:54;95642.00;;;24.64
50206;BMP280;36098;48.390;10.856;2023-07-29T04:49:19;95645.97;;;24.62
50206;BMP280;36098;48.390;10.856;2023-07-29T04:51:45;95650.50;;;24.61
50206;BMP280;36098;48.390;10.856;2023-07-29T04:54:10;95652.63;;;24.59
50206;BMP280;36098;48.390;10.856;2023-07-29T04:56:36;95649.69;;;24.61
50206;BMP280;36098;48.390;10.856;2023-07-29T04:59:01;95650.72;;;24.65
50206;BMP280;36098;48.390;10.856;2023-07-29T05:01:26;95639.44;;;24.59
50206;BMP280;36098;48.390;10.856;2023-07-29T05:03:51;95650.97;;;24.63
50206;BMP280;36098;48.390;10.856;2023-07-29T05:06:17;95652.06;;;24.62
50206;BMP280;36098;48.390;10.856;2023-07-29T05:08:42;95651.84;;;24.59
50206;BMP280;36098;48.390;10.856;2023-07-29T05:11:07;95650.28;;;24.58
50206;BMP280;36098;48.390;10.856;2023-07-29T05:13:32;95641.50;;;24.62
50206;BMP280;36098;48.390;10.856;2023-07-29T05:15:58;95640.69;;;24.62
50206;BMP280;36098;48.390;10.856;2023-07-29T05:18:23;95648.94;;;24.60
50206;BMP280;36098;48.390;10.856;2023-07-29T05:20:48;95647.34;;;24.59
50206;BMP280;36098;48.390;10.856;2023-07-29T05:23:14;95643.66;;;24.60
50206;BMP280;36098;48.390;10.856;2023-07-29T05:25:39;95636.50;;;24.61
50206;BMP280;36098;48.390;10.856;2023-07-29T05:28:04;95644.22;;;24.57
50206;BMP280;36098;48.390;10.856;2023-07-29T05:30:30;95641.00;;;24.60
50206;BMP280;36098;48.390;10.856;2023-07-29T05:33:05;95641.78;;;24.61
50206;BMP280;36098;48.390;10.856;2023-07-29T05:35:32;95644.00;;;24.54
50206;BMP280;36098;48.390;10.856;2023-07-29T05:37:58;95649.69;;;24.61
50206;BMP280;36098;48.390;10.856;2023-07-29T05:40:23;95650.50;;;24.61
50206;BMP280;36098;48.390;10.856;2023-07-29T05:42:49;95640.22;;;24.60
50206;BMP280;36098;48.390;10.856;2023-07-29T05:45:14;95642.06;;;24.59
50206;BMP280;36098;48.390;10.856;2023-07-29T05:47:39;95648.72;;;24.57
50206;BMP280;36098;48.390;10.856;2023-07-29T05:50:05;95645.78;;;24.58
50206;BMP280;36098;48.390;10.856;2023-07-29T05:52:31;95651.06;;;24.58
50206;BMP280;36098;48.390;10.856;2023-07-29T05:54:57;95657.13;;;24.59
50206;BMP280;36098;48.390;10.856;2023-07-29T05:57:22;95663.19;;;24.59
50206;BMP280;36098;48.390;10.856;2023-07-29T05:59:47;95667.69;;;24.59
50206;BMP280;36098;48.390;10.856;2023-07-29T06:02:12;95667.69;;;24.59
50206;BMP280;36098;48.390;10.856;2023-07-29T06:04:38;95665.84;;;24.59
50206;BMP280;36098;48.390;10.856;2023-07-29T06:07:04;95677.97;;;24.60
50206;BMP280;36098;48.390;10.856;2023-07-29T06:09:29;95674.84;;;24.58
50206;BMP280;36098;48.390;10.856;2023-07-29T06:11:54;95706.56;;;24.53
50206;BMP280;36098;48.390;10.856;2023-07-29T06:14:19;95696.22;;;24.57
50206;BMP280;36098;48.390;10.856;2023-07-29T06:16:45;95680.38;;;24.57
50206;BMP280;36098;48.390;10.856;2023-07-29T06:19:10;95674.34;;;24.56
50206;BMP280;36098;48.390;10.856;2023-07-29T06:21:35;95684.09;;;24.56
50206;BMP280;36098;48.390;10.856;2023-07-29T06:24:01;95698.38;;;24.55
50206;BMP280;36098;48.390;10.856;2023-07-29T06:26:27;95690.16;;;24.56
50206;BMP280;36098;48.390;10.856;2023-07-29T06:28:53;95708.13;;;24.54
50206;BMP280;36098;48.390;10.856;2023-07-29T06:31:18;95714.47;;;24.53
50206;BMP280;36098;48.390;10.856;2023-07-29T06:33:43;95733.47;;;24.55
50206;BMP280;36098;48.390;10.856;2023-07-29T06:36:08;95727.91;;;24.57
50206;BMP280;36098;48.390;10.856;2023-07-29T06:38:34;95693.91;;;24.50
50206;BMP280;36098;48.390;10.856;2023-07-29T06:40:59;95680.09;;;24.58
50206;BMP280;36098;48.390;10.856;2023-07-29T06:43:24;95682.75;;;24.58
50206;BMP280;36098;48.390;10.856;2023-07-29T06:45:50;95681.19;;;24.57
50206;BMP280;36098;48.390;10.856;2023-07-29T06:48:15;95691.44;;;24.59
50206;BMP280;36098;48.390;10.856;2023-07-29T06:50:40;95684.59;;;24.58
50206;BMP280;36098;48.390;10.856;2023-07-29T06:53:06;95675.69;;;24.54
50206;BMP280;36098;48.390;10.856;2023-07-29T06:55:31;95678.06;;;24.50
50206;BMP280;36098;48.390;10.856;2023-07-29T06:57:56;95666.47;;;24.51
50206;BMP280;36098;48.390;10.856;2023-07-29T07:00:22;95669.59;;;24.53
50206;BMP280;36098;48.390;10.856;2023-07-29T07:02:47;95668.75;;;24.58
50206;BMP280;36098;48.390;10.856;2023-07-29T07:05:12;95655.34;;;24.54
50206;BMP280;36098;48.390;10.856;2023-07-29T07:07:38;95660.13;;;24.84
50206;BMP280;36098;48.390;10.856;2023-07-29T07:10:04;95651.31;;;24.75
50206;BMP280;36098;48.390;10.856;2023-07-29T07:12:29;95655.84;;;24.88
50206;BMP280;36098;48.390;10.856;2023-07-29T07:14:54;95657.59;;;24.79
50206;BMP280;36098;48.390;10.856;2023-07-29T07:17:20;95647.94;;;25.02
50206;BMP280;36098;48.390;10.856;2023-07-29T07:19:45;95647.06;;;24.93
50206;BMP280;36098;48.390;10.856;2023-07-29T07:22:11;95651.88;;;24.72
50206;BMP280;36098;48.390;10.856;2023-07-29T07:24:36;95654.47;;;24.59
50206;BMP280;36098;48.390;10.856;2023-07-29T07:27:02;95645.97;;;24.62
50206;BMP280;36098;48.390;10.856;2023-07-29T07:29:27;95648.56;;;24.67
50206;BMP280;36098;48.390;10.856;2023-07-29T07:31:53;95658.09;;;24.63
50206;BMP280;36098;48.390;10.856;2023-07-29T07:34:20;95654.75;;;24.89
50206;BMP280;36098;48.390;10.856;2023-07-29T07:36:46;95657.75;;;25.01
50206;BMP280;36098;48.390;10.856;2023-07-29T07:39:12;95657.47;;;25.16
50206;BMP280;36098;48.390;10.856;2023-07-29T07:41:37;95665.06;;;25.36
50206;BMP280;36098;48.390;10.856;2023-07-29T07:44:03;95663.66;;;25.52
50206;BMP280;36098;48.390;10.856;2023-07-29T07:46:29;95669.06;;;25.20
50206;BMP280;36098;48.390;10.856;2023-07-29T07:48:54;95665.06;;;25.63
50206;BMP280;36098;48.390;10.856;2023-07-29T07:51:19;95657.50;;;25.83
50206;BMP280;36098;48.390;10.856;2023-07-29T07:53:45;95665.94;;;25.58
50206;BMP280;36098;48.390;10.856;2023-07-29T07:56:10;95662.38;;;25.22
50206;BMP280;36098;48.390;10.856;2023-07-29T07:58:35;95663.66;;;25.25
50206;BMP280;36098;48.390;10.856;2023-07-29T08:01:04;95650.22;;;25.08
50206;BMP280;36098;48.390;10.856;2023-07-29T08:03:30;95658.56;;;25.15
50206;BMP280;36098;48.390;10.856;2023-07-29T08:05:55;95661.97;;;25.15
50206;BMP280;36098;48.390;10.856;2023-07-29T08:08:21;95651.69;;;25.14
50206;BMP280;36098;48.390;10.856;2023-07-29T08:10:46;95649.09;;;25.41
50206;BMP280;36098;48.390;10.856;2023-07-29T08:13:11;95653.47;;;25.32
50206;BMP280;36098;48.390;10.856;2023-07-29T08:15:37;95653.78;;;25.57
50206;BMP280;36098;48.390;10.856;2023-07-29T08:18:02;95660.44;;;25.28
50206;BMP280;36098;48.390;10.856;2023-07-29T08:20:27;95657.09;;;25.22
50206;BMP280;36098;48.390;10.856;2023-07-29T08:22:53;95664.50;;;25.07
50206;BMP280;36098;48.390;10.856;2023-07-29T08:25:18;95666.03;;;24.95
50206;BMP280;36098;48.390;10.856;2023-07-29T08:27:43;95665.28;;;25.08
50206;BMP280;36098;48.390;10.856;2023-07-29T08:30:09;95662.03;;;24.97
50206;BMP280;36098;48.390;10.856;2023-07-29T08:32:34;95664.41;;;25.12
50206;BMP280;36098;48.390;10.856;2023-07-29T08:35:00;95658.69;;;25.37
50206;BMP280;36098;48.390;10.856;2023-07-29T08:37:25;95664.47;;;25.25
50206;BMP280;36098;48.390;10.856;2023-07-29T08:39:52;95657.19;;;25.31
50206;BMP280;36098;48.390;10.856;2023-07-29T08:42:19;95662.53;;;25.58
50206;BMP280;36098;48.390;10.856;2023-07-29T08:44:45;95668.25;;;25.33
50206;BMP280;36098;48.390;10.856;2023-07-29T08:47:11;95665.34;;;25.21
50206;BMP280;36098;48.390;10.856;2023-07-29T08:49:38;95662.94;;;25.06
50206;BMP280;36098;48.390;10.856;2023-07-29T08:52:04;95674.66;;;25.00
50206;BMP280;36098;48.390;10.856;2023-07-29T08:54:30;95677.22;;;25.05
50206;BMP280;36098;48.390;10.856;2023-07-29T08:56:55;95673.09;;;24.99
50206;BMP280;36098;48.390;10.856;2023-07-29T08:59:21;95663.50;;;25.03
50206;BMP280;36098;48.390;10.856;2023-07-29T09:01:47;95665.25;;;24.94
50206;BMP280;36098;48.390;10.856;2023-07-29T09:04:12;95669.75;;;24.94
50206;BMP280;36098;48.390;10.856;2023-07-29T09:06:39;95666.84;;;24.95
50206;BMP280;36098;48.390;10.856;2023-07-29T09:09:05;95659.41;;;24.97
50206;BMP280;36098;48.390;10.856;2023-07-29T09:11:31;95655.19;;;24.96
50206;BMP280;36098;48.390;10.856;2023-07-29T09:13:56;95657.13;;;24.91
50206;BMP280;36098;48.390;10.856;2023-07-29T09:16:22;95659.97;;;24.94
50206;BMP280;36098;48.390;10.856;2023-07-29T09:18:49;95658.69;;;24.92
50206;BMP280;36098;48.390;10.856;2023-07-29T09:21:18;95661.75;;;25.12
50206;BMP280;36098;48.390;10.856;2023-07-29T09:23:47;95658.03;;;25.13
50206;BMP280;36098;48.390;10.856;2023-07-29T09:26:13;95661.44;;;25.00
50206;BMP280;36098;48.390;10.856;2023-07-29T09:28:39;95658.91;;;25.54
50206;BMP280;36098;48.390;10.856;2023-07-29T09:31:05;95649.69;;;25.65
50206;BMP280;36098;48.390;10.856;2023-07-29T09:33:34;95661.94;;;25.34
50206;BMP280;36098;48.390;10.856;2023-07-29T09:36:03;95669.78;;;25.07
50206;BMP280;36098;48.390;10.856;2023-07-29T09:38:28;95673.47;;;24.93
50206;BMP280;36098;48.390;10.856;2023-07-29T09:40:57;95678.03;;;24.87
50206;BMP280;36098;48.390;10.856;2023-07-29T09:43:29;95690.66;;;24.90
50206;BMP280;36098;48.390;10.856;2023-07-29T09:45:55;95689.78;;;24.81
50206;BMP280;36098;48.390;10.856;2023-07-29T09:48:23;95690.94;;;24.75
50206;BMP280;36098;48.390;10.856;2023-07-29T09:50:49;95684.56;;;24.76
50206;BMP280;36098;48.390;10.856;2023-07-29T09:53:14;95678.03;;;24.87
50206;BMP280;36098;48.390;10.856;2023-07-29T09:55:39;95683.81;;;24.89
50206;BMP280;36098;48.390;10.856;2023-07-29T09:58:10;95692.72;;;24.93
50206;BMP280;36098;48.390;10.856;2023-07-29T10:00:36;95705.44;;;24.91
50206;BMP280;36098;48.390;10.856;2023-07-29T10:03:03;95697.69;;;24.81
50206;BMP280;36098;48.390;10.856;2023-07-29T10:05:29;95697.78;;;24.76
50206;BMP280;36098;48.390;10.856;2023-07-29T10:07:55;95713.41;;;24.73
50206;BMP280;36098;48.390;10.856;2023-07-29T10:10:22;95708.00;;;24.96
50206;BMP280;36098;48.390;10.856;2023-07-29T10:12:47;95697.84;;;25.03
50206;BMP280;36098;48.390;10.856;2023-07-29T10:15:12;95686.03;;;25.14
50206;BMP280;36098;48.390;10.856;2023-07-29T10:17:39;95699.81;;;25.11
50206;BMP280;36098;48.390;10.856;2023-07-29T10:20:06;95701.69;;;25.11
50206;BMP280;36098;48.390;10.856;2023-07-29T10:22:37;95687.28;;;25.03
50206;BMP280;36098;48.390;10.856;2023-07-29T10:25:23;95696.63;;;25.14
50206;BMP280;36098;48.390;10.856;2023-07-29T10:27:52;95694.47;;;25.16
50206;BMP280;36098;48.390;10.856;2023-07-29T10:30:18;95697.84;;;25.48
50206;BMP280;36098;48.390;10.856;2023-07-29T10:32:44;95697.25;;;25.24
50206;BMP280;36098;48.390;10.856;2023-07-29T10:35:14;95703.25;;;25.12
50206;BMP280;36098;48.390;10.856;2023-07-29T10:37:40;95701.06;;;25.32
50206;BMP280;36098;48.390;10.856;2023-07-29T10:40:08;95696.94;;;25.26
50206;BMP280;36098;48.390;10.856;2023-07-29T10:42:34;95692.75;;;25.52
50206;BMP280;36098;48.390;10.856;2023-07-29T10:45:00;95683.94;;;25.56
50206;BMP280;36098;48.390;10.856;2023-07-29T10:47:27;95681.19;;;25.48
50206;BMP280;36098;48.390;10.856;2023-07-29T10:49:55;95681.88;;;25.26
50206;BMP280;36098;48.390;10.856;2023-07-29T10:55:02;95691.78;;;25.48
50206;BMP280;36098;48.390;10.856;2023-07-29T10:57:37;95688.63;;;25.32
50206;BMP280;36098;48.390;10.856;2023-07-29T11:00:04;95692.25;;;25.50
50206;BMP280;36098;48.390;10.856;2023-07-29T11:02:36;95677.97;;;25.51
50206;BMP280;36098;48.390;10.856;2023-07-29T11:05:17;95667.09;;;25.79
50206;BMP280;36098;48.390;10.856;2023-07-29T11:07:47;95661.31;;;26.04
50206;BMP280;36098;48.390;10.856;2023-07-29T11:10:14;95662.28;;;25.81
50206;BMP280;36098;48.390;10.856;2023-07-29T11:12:50;95660.56;;;25.63
50206;BMP280;36098;48.390;10.856;2023-07-29T11:17:47;95668.06;;;25.70
50206;BMP280;36098;48.390;10.856;2023-07-29T11:20:14;95654.88;;;25.83
50206;BMP280;36098;48.390;10.856;2023-07-29T11:22:39;95663.19;;;25.50
50206;BMP280;36098;48.390;10.856;2023-07-29T11:25:07;95654.50;;;25.49
50206;BMP280;36098;48.390;10.856;2023-07-29T11:27:33;95651.03;;;26.03
50206;BMP280;36098;48.390;10.856;2023-07-29T11:29:59;95648.41;;;26.25
50206;BMP280;36098;48.390;10.856;2023-07-29T11:32:25;95671.41;;;25.62
50206;BMP280;36098;48.390;10.856;2023-07-29T11:34:51;95667.91;;;25.66
50206;BMP280;36098;48.390;10.856;2023-07-29T11:37:16;95649.94;;;26.04
50206;BMP280;36098;48.390;10.856;2023-07-29T11:39:42;95651.72;;;25.81
50206;BMP280;36098;48.390;10.856;2023-07-29T11:42:11;95657.34;;;25.53
50206;BMP280;36098;48.390;10.856;2023-07-29T11:44:37;95638.19;;;25.96
50206;BMP280;36098;48.390;10.856;2023-07-29T11:47:06;95620.19;;;26.20
50206;BMP280;36098;48.390;10.856;2023-07-29T11:49:33;95619.16;;;26.43
50206;BMP280;36098;48.390;10.856;2023-07-29T11:51:58;95615.44;;;26.31
50206;BMP280;36098;48.390;10.856;2023-07-29T11:54:24;95617.94;;;26.27
50206;BMP280;36098;48.390;10.856;2023-07-29T11:56:50;95608.84;;;26.20
50206;BMP280;36098;48.390;10.856;2023-07-29T11:59:15;95626.53;;;25.97
50206;BMP280;36098;48.390;10.856;2023-07-29T12:01:41;95619.28;;;26.03
50206;BMP280;36098;48.390;10.856;2023-07-29T12:04:06;95618.53;;;25.62
50206;BMP280;36098;48.390;10.856;2023-07-29T12:06:32;95611.09;;;25.64
50206;BMP280;36098;48.390;10.856;2023-07-29T12:08:58;95618.56;;;25.48
50206;BMP280;36098;48.390;10.856;2023-07-29T12:11:23;95616.03;;;25.43
50206;BMP280;36098;48.390;10.856;2023-07-29T12:13:48;95610.69;;;25.70
50206;BMP280;36098;48.390;10.856;2023-07-29T12:16:17;95628.22;;;25.80
50206;BMP280;36098;48.390;10.856;2023-07-29T12:18:45;95616.56;;;25.81
50206;BMP280;36098;48.390;10.856;2023-07-29T12:21:10;95621.81;;;26.08
50206;BMP280;36098;48.390;10.856;2023-07-29T12:23:38;95611.88;;;25.78
50206;BMP280;36098;48.390;10.856;2023-07-29T12:26:04;95616.00;;;25.84
50206;BMP280;36098;48.390;10.856;2023-07-29T12:28:30;95625.16;;;26.00
50206;BMP280;36098;48.390;10.856;2023-07-29T12:30:56;95618.34;;;25.85
50206;BMP280;36098;48.390;10.856;2023-07-29T12:33:34;95619.50;;;25.66
50206;BMP280;36098;48.390;10.856;2023-07-29T12:36:01;95619.13;;;25.59
50206;BMP280;36098;48.390;10.856;2023-07-29T12:38:27;95629.59;;;25.64
50206;BMP280;36098;48.390;10.856;2023-07-29T12:40:52;95608.91;;;25.79
50206;BMP280;36098;48.390;10.856;2023-07-29T12:43:18;95607.34;;;25.78
50206;BMP280;36098;48.390;10.856;2023-07-29T12:45:43;95603.13;;;25.77
50206;BMP280;36098;48.390;10.856;2023-07-29T12:48:09;95606.97;;;25.85
50206;BMP280;36098;48.390;10.856;2023-07-29T12:50:35;95598.66;;;25.91
50206;BMP280;36098;48.390;10.856;2023-07-29T12:53:00;95603.53;;;25.98
50206;BMP280;36098;48.390;10.856;2023-07-29T12:55:25;95594.88;;;26.06
50206;BMP280;36098;48.390;10.856;2023-07-29T12:57:51;95595.34;;;26.08
50206;BMP280;36098;48.390;10.856;2023-07-29T13:00:16;95594.03;;;25.97
50206;BMP280;36098;48.390;10.856;2023-07-29T13:02:42;95585.63;;;25.95
50206;BMP280;36098;48.390;10.856;2023-07-29T13:05:10;95583.44;;;25.97
50206;BMP280;36098;48.390;10.856;2023-07-29T13:07:37;95603.34;;;25.94
50206;BMP280;36098;48.390;10.856;2023-07-29T13:10:02;95596.75;;;25.92
50206;BMP280;36098;48.390;10.856;2023-07-29T13:12:28;95595.81;;;25.88
50206;BMP280;36098;48.390;10.856;2023-07-29T13:14:53;95598.03;;;25.94
50206;BMP280;36098;48.390;10.856;2023-07-29T13:17:18;95598.31;;;26.06
50206;BMP280;36098;48.390;10.856;2023-07-29T13:19:44;95619.28;;;26.03
50206;BMP280;36098;48.390;10.856;2023-07-29T13:22:09;95622.13;;;26.06
50206;BMP280;36098;48.390;10.856;2023-07-29T13:24:34;95621.44;;;26.01
50206;BMP280;36098;48.390;10.856;2023-07-29T13:27:00;95609.44;;;26.17
50206;BMP280;36098;48.390;10.856;2023-07-29T13:29:25;95605.13;;;26.21
50206;BMP280;36098;48.390;10.856;2023-07-29T13:31:50;95594.13;;;26.27
50206;BMP280;36098;48.390;10.856;2023-07-29T13:34:15;95590.44;;;26.15
50206;BMP280;36098;48.390;10.856;2023-07-29T13:36:40;95587.50;;;26.38
50206;BMP280;36098;48.390;10.856;2023-07-29T13:39:06;95591.75;;;26.04
50206;BMP280;36098;48.390;10.856;2023-07-29T13:41:31;95604.13;;;25.95
50206;BMP280;36098;48.390;10.856;2023-07-29T13:43:56;95603.03;;;25.96
50206;BMP280;36098;48.390;10.856;2023-07-29T13:46:22;95602.06;;;25.92
50206;BMP280;36098;48.390;10.856;2023-07-29T13:48:47;95594.66;;;26.16
50206;BMP280;36098;48.390;10.856;2023-07-29T13:51:12;95593.16;;;26.23
50206;BMP280;36098;48.390;10.856;2023-07-29T13:53:37;95589.16;;;26.12
50206;BMP280;36098;48.390;10.856;2023-07-29T13:56:04;95593.25;;;26.18
50206;BMP280;36098;48.390;10.856;2023-07-29T13:58:29;95594.19;;;26.14
50206;BMP280;36098;48.390;10.856;2023-07-29T14:00:55;95598.13;;;26.03
50206;BMP280;36098;48.390;10.856;2023-07-29T14:03:20;95603.75;;;26.10